Time;durP1;ratioP1;P1;durP2;ratioP2;P2;SDS_P1;SDS_P2;PMS_P1;PMS_P2;Temp;Humidity;BMP_temperature;BMP_pressure;BME280_temperature;BME280_humidity;BME280_pressure;Samples;Min_cycle;Max_cycle;Signal;HPM_P1;HPM_P2
2021/06/08 00:01:04;;;;;;;4.07;2.15;;;13.50;99.90;;;;;;5057209;28;20025;-65
2021/06/08 00:03:30;;;;;;;2.28;2.17;;;13.50;99.90;;;;;;5057523;28;20025;-65
2021/06/08 00:05:57;;;;;;;2.25;2.05;;;13.50;99.90;;;;;;5057018;28;20021;-65
2021/06/08 00:08:23;;;;;;;3.33;1.98;;;13.40;99.90;;;;;;5057166;28;20082;-65
2021/06/08 00:10:49;;;;;;;2.10;1.90;;;13.40;99.90;;;;;;5056904;28;20021;-65
2021/06/08 00:13:15;;;;;;;3.90;2.50;;;13.40;99.90;;;;;;5057296;28;20040;-65
2021/06/08 00:15:41;;;;;;;2.00;1.88;;;13.30;99.90;;;;;;5057212;28;20021;-65
2021/06/08 00:18:07;;;;;;;4.13;2.20;;;13.30;99.90;;;;;;5056582;28;20114;-65
2021/06/08 00:20:33;;;;;;;2.10;1.92;;;13.40;99.90;;;;;;5056494;28;20032;-65
2021/06/08 00:22:58;;;;;;;2.33;1.88;;;13.40;99.90;;;;;;5056850;28;20021;-65
2021/06/08 00:25:24;;;;;;;2.20;2.00;;;13.30;99.90;;;;;;5056661;28;20037;-65
2021/06/08 00:27:53;;;;;;;1.70;1.60;;;13.40;99.90;;;;;;5056583;28;20021;-65
2021/06/08 00:30:20;;;;;;;2.25;2.13;;;13.40;99.90;;;;;;5056725;28;20409;-65
2021/06/08 00:32:46;;;;;;;2.53;1.70;;;13.40;99.90;;;;;;5057208;28;20021;-65
2021/06/08 00:35:12;;;;;;;5.07;2.42;;;13.40;99.90;;;;;;5056715;28;20108;-65
2021/06/08 00:37:39;;;;;;;2.47;1.90;;;13.30;99.90;;;;;;5056743;28;20389;-65
2021/06/08 00:40:06;;;;;;;3.40;2.47;;;13.40;99.90;;;;;;5056458;28;20155;-65
2021/06/08 00:42:34;;;;;;;3.65;2.20;;;13.30;99.90;;;;;;5056382;28;20389;-65
2021/06/08 00:45:01;;;;;;;3.10;2.67;;;13.20;99.90;;;;;;5056660;28;20072;-65
2021/06/08 00:47:27;;;;;;;1.98;1.88;;;13.20;99.90;;;;;;5056767;28;20027;-65
2021/06/08 00:49:52;;;;;;;2.17;2.08;;;13.20;99.90;;;;;;5056389;28;20112;-65
2021/06/08 00:52:19;;;;;;;3.80;2.25;;;13.10;99.90;;;;;;5056539;28;20374;-65
2021/06/08 00:54:44;;;;;;;3.08;2.20;;;13.30;99.90;;;;;;5056328;28;20398;-65
2021/06/08 00:57:11;;;;;;;2.70;2.15;;;13.20;99.90;;;;;;5056397;28;20025;-65
2021/06/08 00:59:37;;;;;;;2.08;1.98;;;13.30;99.90;;;;;;5056585;28;20029;-65
2021/06/08 01:02:03;;;;;;;2.13;1.92;;;13.30;99.90;;;;;;5056573;28;20021;-65
2021/06/08 01:04:29;;;;;;;3.38;2.00;;;13.20;99.90;;;;;;5056401;28;20037;-66
2021/06/08 01:06:55;;;;;;;2.38;2.25;;;13.30;99.90;;;;;;5056267;28;20784;-65
2021/06/08 01:09:21;;;;;;;7.00;2.70;;;13.20;99.90;;;;;;5056402;28;20499;-66
2021/06/08 01:11:47;;;;;;;2.47;1.90;;;13.00;99.90;;;;;;5056211;28;20354;-65
2021/06/08 01:14:13;;;;;;;2.60;2.42;;;13.10;99.90;;;;;;5056709;28;20057;-66
2021/06/08 01:16:39;;;;;;;2.00;1.90;;;13.10;99.90;;;;;;5050433;28;20029;-66
2021/06/08 01:19:06;;;;;;;2.40;2.20;;;13.10;99.90;;;;;;5056369;28;20033;-66
2021/06/08 01:21:33;;;;;;;2.60;2.40;;;13.00;99.90;;;;;;5056305;28;20052;-65
2021/06/08 01:23:59;;;;;;;5.18;2.45;;;13.10;99.90;;;;;;5055842;28;20417;-66
2021/06/08 01:26:27;;;;;;;4.65;2.67;;;13.00;99.90;;;;;;5055792;28;20037;-65
2021/06/08 01:29:01;;;;;;;3.95;3.53;;;13.00;99.90;;;;;;5056467;28;20017;-65
2021/06/08 01:31:29;;;;;;;2.38;2.28;;;13.00;99.90;;;;;;5059057;28;20574;-65
2021/06/08 01:33:56;;;;;;;3.35;2.88;;;12.90;99.90;;;;;;5060634;28;20021;-65
2021/06/08 01:36:23;;;;;;;1.80;1.70;;;13.00;99.90;;;;;;5059882;28;20029;-65
2021/06/08 01:38:51;;;;;;;2.63;2.42;;;12.90;99.90;;;;;;5060116;28;20033;-65
2021/06/08 01:41:25;;;;;;;3.20;2.63;;;12.90;99.90;;;;;;5059539;28;20021;-65
2021/06/08 01:43:52;;;;;;;2.67;2.45;;;12.80;99.90;;;;;;5060105;28;20405;-65
2021/06/08 01:46:20;;;;;;;4.07;2.55;;;12.90;99.90;;;;;;5059668;28;20025;-65
2021/06/08 01:48:46;;;;;;;4.88;2.50;;;12.90;99.90;;;;;;5059931;28;20481;-65
2021/06/08 01:51:39;;;;;;;3.90;3.25;;;12.80;99.90;;;;;;5059791;28;20028;-65
2021/06/08 01:54:11;;;;;;;2.67;2.47;;;12.90;99.90;;;;;;5059794;28;20029;-65
2021/06/08 01:56:43;;;;;;;2.50;2.30;;;12.90;99.90;;;;;;5059406;28;20550;-65
2021/06/08 01:59:54;;;;;;;3.33;2.53;;;12.70;99.90;;;;;;5059752;28;20435;-65
2021/06/08 02:02:42;;;;;;;4.13;2.40;;;13.00;99.90;;;;;;5059099;28;20069;-65
2021/06/08 02:05:56;;;;;;;4.82;2.20;;;12.80;99.90;;;;;;5059597;28;20393;-65
2021/06/08 02:08:43;;;;;;;2.83;2.63;;;12.90;99.90;;;;;;5049414;28;20025;-65
2021/06/08 02:11:27;;;;;;;3.00;2.72;;;12.80;99.90;;;;;;5059423;28;20374;-65
2021/06/08 02:14:08;;;;;;;4.65;2.55;;;12.70;99.90;;;;;;5059306;28;20025;-65
2021/06/08 02:16:49;;;;;;;5.18;3.00;;;12.80;99.90;;;;;;5059001;28;20401;-65
2021/06/08 02:19:17;;;;;;;5.05;3.55;;;12.70;99.90;;;;;;5047708;28;20036;-65
2021/06/08 02:21:47;;;;;;;4.38;2.63;;;12.50;99.90;;;;;;5059106;28;20017;-66
2021/06/08 02:24:21;;;;;;;5.72;2.60;;;12.50;99.90;;;;;;5059003;28;20063;-65
2021/06/08 02:26:48;;;;;;;4.15;2.88;;;12.50;99.90;;;;;;5058630;28;20025;-65
2021/06/08 02:29:16;;;;;;;2.33;2.22;;;12.60;99.90;;;;;;5059128;28;20056;-65
2021/06/08 02:31:43;;;;;;;5.95;2.85;;;12.40;99.90;;;;;;5059155;28;20023;-66
2021/06/08 02:34:12;;;;;;;3.05;2.47;;;12.60;99.90;;;;;;5059557;28;20025;-65
2021/06/08 02:36:39;;;;;;;2.47;2.28;;;12.50;99.90;;;;;;5058829;28;20021;-65
2021/06/08 02:39:06;;;;;;;3.42;3.13;;;12.30;99.90;;;;;;5058872;28;20021;-65
2021/06/08 02:41:33;;;;;;;3.70;2.70;;;12.30;99.90;;;;;;5057615;28;20071;-65
2021/06/08 02:44:00;;;;;;;3.28;2.70;;;12.30;99.90;;;;;;5058724;28;20025;-65
2021/06/08 02:46:26;;;;;;;4.25;2.83;;;12.20;99.90;;;;;;5058473;28;20028;-65
2021/06/08 02:48:54;;;;;;;8.10;2.95;;;12.40;99.90;;;;;;5058807;28;20390;-65
2021/06/08 02:51:21;;;;;;;3.40;3.10;;;12.20;99.90;;;;;;5058571;28;20021;-65
2021/06/08 02:53:48;;;;;;;3.35;2.90;;;12.00;99.90;;;;;;5058573;28;20032;-66
2021/06/08 02:56:14;;;;;;;4.28;3.08;;;12.30;99.90;;;;;;5058227;28;20025;-65
2021/06/08 02:58:43;;;;;;;3.30;3.00;;;12.40;99.90;;;;;;5058781;28;20017;-65
2021/06/08 03:01:12;;;;;;;6.05;4.07;;;12.00;99.90;;;;;;5045550;28;20063;-65
2021/06/08 03:03:41;;;;;;;4.15;3.55;;;12.20;99.90;;;;;;5058722;28;20044;-65
2021/06/08 03:06:19;;;;;;;3.50;2.97;;;12.40;99.90;;;;;;5056992;28;20044;-65
2021/06/08 03:08:59;;;;;;;3.53;2.97;;;12.20;99.90;;;;;;5058193;28;20043;-65
2021/06/08 03:11:28;;;;;;;5.40;3.10;;;12.10;99.90;;;;;;5058184;28;20045;-65
2021/06/08 03:13:56;;;;;;;4.05;3.35;;;12.00;99.90;;;;;;5058200;28;20019;-65
2021/06/08 03:16:26;;;;;;;3.17;2.97;;;12.20;99.90;;;;;;5058281;28;20032;-66
2021/06/08 03:18:54;;;;;;;2.83;2.63;;;12.40;99.90;;;;;;5058083;28;20033;-66
2021/06/08 03:21:27;;;;;;;3.53;3.25;;;12.20;99.90;;;;;;5058302;28;20025;-65
2021/06/08 03:23:55;;;;;;;3.80;3.35;;;12.10;99.90;;;;;;5057663;28;20483;-66
2021/06/08 03:26:22;;;;;;;8.95;3.35;;;12.10;99.90;;;;;;5057582;28;20029;-65
2021/06/08 03:28:51;;;;;;;3.92;3.50;;;12.10;99.90;;;;;;5057826;28;20503;-65
2021/06/08 03:31:19;;;;;;;5.50;3.28;;;12.10;99.90;;;;;;5057892;28;20013;-65
2021/06/08 03:33:46;;;;;;;3.60;3.30;;;12.00;99.90;;;;;;5058013;28;20025;-66
2021/06/08 03:36:13;;;;;;;3.20;2.90;;;11.90;99.90;;;;;;5057719;28;20081;-65
2021/06/08 03:38:40;;;;;;;3.53;3.22;;;12.10;99.90;;;;;;5058055;28;20056;-65
2021/06/08 03:41:07;;;;;;;4.38;3.97;;;12.00;99.90;;;;;;5057440;28;20021;-66
2021/06/08 03:43:35;;;;;;;4.95;4.45;;;12.20;99.90;;;;;;5057891;28;20029;-65
2021/06/08 03:46:01;;;;;;;4.65;4.22;;;12.20;99.90;;;;;;5057378;28;20112;-65
2021/06/08 03:48:27;;;;;;;16.65;5.13;;;12.20;99.90;;;;;;5057780;28;20072;-66
2021/06/08 03:50:53;;;;;;;22.63;5.55;;;11.90;99.90;;;;;;5057671;28;20354;-65
2021/06/08 03:53:19;;;;;;;5.25;4.70;;;12.20;99.90;;;;;;5057412;28;20071;-65
2021/06/08 03:55:48;;;;;;;4.78;4.32;;;12.10;99.90;;;;;;5057082;28;20021;-65
2021/06/08 03:58:18;;;;;;;5.05;3.50;;;12.00;99.90;;;;;;5057585;28;20032;-65
2021/06/08 04:00:47;;;;;;;5.72;5.05;;;12.20;99.90;;;;;;5057431;28;20025;-65
2021/06/08 04:03:17;;;;;;;5.32;4.38;;;11.80;99.90;;;;;;5057366;28;20104;-65
2021/06/08 04:05:43;;;;;;;6.75;4.10;;;12.00;99.90;;;;;;5057201;28;20024;-65
2021/06/08 04:08:10;;;;;;;4.50;4.10;;;12.20;99.90;;;;;;5057455;28;20074;-65
2021/06/08 04:10:39;;;;;;;6.93;4.72;;;11.70;99.90;;;;;;5056771;28;20021;-65
2021/06/08 04:13:05;;;;;;;6.00;4.97;;;12.00;99.90;;;;;;5057422;28;20024;-66
2021/06/08 04:15:32;;;;;;;4.97;3.90;;;12.20;99.90;;;;;;5056896;28;20852;-65
2021/06/08 04:17:59;;;;;;;5.05;4.55;;;12.20;99.90;;;;;;5057140;28;20033;-65
2021/06/08 04:20:29;;;;;;;3.33;3.03;;;12.10;99.90;;;;;;5056891;28;20024;-65
2021/06/08 04:22:57;;;;;;;3.65;3.35;;;11.60;99.90;;;;;;5057099;28;20095;-67
2021/06/08 04:25:24;;;;;;;5.85;4.07;;;11.90;99.90;;;;;;5056306;28;20060;-65
2021/06/08 04:27:51;;;;;;;8.32;4.05;;;12.00;99.90;;;;;;5056976;28;20485;-65
2021/06/08 04:30:17;;;;;;;3.20;3.00;;;11.90;99.90;;;;;;5056760;28;20017;-66
2021/06/08 04:32:46;;;;;;;3.53;3.22;;;12.00;99.90;;;;;;5056985;28;20028;-65
2021/06/08 04:35:14;;;;;;;3.45;3.15;;;11.90;99.90;;;;;;5056608;28;20029;-66
2021/06/08 04:37:40;;;;;;;3.40;3.10;;;11.90;99.90;;;;;;5056923;28;20032;-66
2021/06/08 04:40:08;;;;;;;4.43;4.03;;;11.90;99.90;;;;;;5056688;28;20025;-66
2021/06/08 04:42:41;;;;;;;3.58;3.28;;;12.10;99.90;;;;;;5056351;28;20025;-66
2021/06/08 04:45:07;;;;;;;5.03;3.22;;;12.10;99.90;;;;;;5056734;28;20021;-65
2021/06/08 04:47:33;;;;;;;5.22;3.85;;;12.00;99.90;;;;;;5047075;28;20493;-65
2021/06/08 04:49:59;;;;;;;3.80;3.50;;;12.10;99.90;;;;;;5042700;28;20393;-66
2021/06/08 04:52:25;;;;;;;3.70;3.28;;;12.00;99.90;;;;;;5057926;28;20549;-66
2021/06/08 04:54:51;;;;;;;3.45;3.15;;;12.30;99.90;;;;;;5056018;28;20021;-66
2021/06/08 04:57:17;;;;;;;3.58;3.28;;;12.20;99.90;;;;;;5069598;28;20029;-66
2021/06/08 05:00:10;;;;;;;3.45;3.05;;;12.40;99.90;;;;;;5054165;28;20397;-67
2021/06/08 05:02:39;;;;;;;4.63;2.90;;;12.60;99.90;;;;;;5055950;28;20028;-66
2021/06/08 05:05:31;;;;;;;2.95;2.75;;;12.60;99.90;;;;;;5056957;28;20017;-66
2021/06/08 05:08:19;;;;;;;4.82;3.17;;;12.50;99.90;;;;;;5059997;28;20052;-66
2021/06/08 05:11:18;;;;;;;4.15;3.63;;;12.80;99.90;;;;;;5059557;28;20025;-66
2021/06/08 05:13:52;;;;;;;4.97;3.53;;;13.10;99.90;;;;;;5058096;28;20025;-65
2021/06/08 05:16:18;;;;;;;5.22;4.15;;;13.00;99.90;;;;;;5059933;28;20029;-65
2021/06/08 05:18:52;;;;;;;6.47;3.55;;;13.30;99.90;;;;;;5060553;28;20079;-65
2021/06/08 05:21:19;;;;;;;6.32;3.70;;;13.40;99.90;;;;;;5060247;28;20083;-65
2021/06/08 05:23:51;;;;;;;5.90;3.72;;;13.70;99.90;;;;;;5060197;28;20044;-65
2021/06/08 05:26:19;;;;;;;3.70;2.78;;;13.70;99.90;;;;;;5059983;28;20041;-65
2021/06/08 05:28:45;;;;;;;2.80;2.60;;;14.00;99.90;;;;;;5060317;28;20075;-65
2021/06/08 05:31:11;;;;;;;3.28;2.85;;;14.20;99.90;;;;;;5060295;28;20481;-65
2021/06/08 05:33:37;;;;;;;4.90;3.35;;;14.40;99.90;;;;;;5060468;28;20044;-65
2021/06/08 05:36:03;;;;;;;3.90;3.47;;;14.60;99.90;;;;;;5059912;28;20029;-65
2021/06/08 05:38:30;;;;;;;4.10;3.67;;;14.80;99.90;;;;;;5060160;28;20028;-65
2021/06/08 05:40:56;;;;;;;5.20;3.03;;;14.90;99.90;;;;;;5059721;28;20033;-65
2021/06/08 05:43:22;;;;;;;4.20;3.00;;;15.00;99.90;;;;;;5060059;28;20036;-66
2021/06/08 05:45:49;;;;;;;3.28;2.97;;;15.30;99.90;;;;;;5058451;28;20404;-65
2021/06/08 05:48:19;;;;;;;3.38;3.08;;;15.50;99.90;;;;;;5059808;28;20025;-65
2021/06/08 05:50:45;;;;;;;4.25;3.85;;;15.70;99.90;;;;;;5059774;28;20482;-65
2021/06/08 05:53:12;;;;;;;5.00;4.53;;;16.10;99.90;;;;;;5059892;28;20032;-66
2021/06/08 05:55:41;;;;;;;4.78;4.30;;;16.20;99.90;;;;;;5059602;28;20094;-66
2021/06/08 05:58:08;;;;;;;4.40;4.00;;;16.50;99.90;;;;;;5059855;28;20029;-66
2021/06/08 06:00:34;;;;;;;6.38;4.05;;;16.70;99.90;;;;;;5059532;28;20067;-65
2021/06/08 06:03:01;;;;;;;5.32;4.43;;;17.10;99.90;;;;;;5059639;28;20040;-65
2021/06/08 06:05:27;;;;;;;5.45;4.13;;;17.20;99.90;;;;;;5059412;28;20495;-65
2021/06/08 06:07:53;;;;;;;5.75;4.60;;;17.50;99.90;;;;;;5059611;28;20040;-66
2021/06/08 06:10:19;;;;;;;4.30;3.90;;;17.80;99.90;;;;;;5058986;28;20052;-66
2021/06/08 06:12:46;;;;;;;4.75;4.35;;;18.00;99.90;;;;;;5059700;28;20029;-66
2021/06/08 06:15:12;;;;;;;4.20;3.80;;;18.20;99.90;;;;;;5059323;28;20024;-65
2021/06/08 06:17:41;;;;;;;5.55;4.55;;;18.40;99.90;;;;;;5059467;28;20104;-66
2021/06/08 06:20:10;;;;;;;5.25;4.10;;;18.70;99.90;;;;;;5059269;28;20025;-66
2021/06/08 06:22:37;;;;;;;4.45;4.05;;;18.90;99.90;;;;;;5059490;28;20025;-66
2021/06/08 06:25:09;;;;;;;7.40;4.70;;;19.20;99.90;;;;;;5058773;28;20190;-66
2021/06/08 06:27:37;;;;;;;5.82;4.55;;;19.40;99.90;;;;;;5058913;28;20013;-66
2021/06/08 06:30:06;;;;;;;4.55;3.53;;;19.70;99.90;;;;;;5059256;28;20103;-66
2021/06/08 06:32:33;;;;;;;6.70;3.63;;;19.90;99.90;;;;;;5059087;28;20029;-66
2021/06/08 06:35:00;;;;;;;5.50;4.22;;;20.10;99.90;;;;;;5059092;28;20037;-66
2021/06/08 06:37:27;;;;;;;5.63;3.22;;;20.40;99.90;;;;;;5058996;28;20024;-66
2021/06/08 06:39:55;;;;;;;4.28;3.88;;;20.70;99.90;;;;;;5058720;28;20028;-66
2021/06/08 06:42:26;;;;;;;3.08;2.78;;;21.00;99.90;;;;;;5058625;28;20028;-66
2021/06/08 06:44:54;;;;;;;5.90;3.53;;;21.30;99.90;;;;;;5058778;28;20080;-66
2021/06/08 06:47:20;;;;;;;8.55;4.28;;;21.60;99.90;;;;;;5058861;28;20088;-66
2021/06/08 06:49:46;;;;;;;6.25;3.38;;;22.00;99.90;;;;;;5059042;28;20067;-66
2021/06/08 06:52:13;;;;;;;6.57;3.40;;;22.30;99.90;;;;;;5058940;28;20032;-66
2021/06/08 06:54:39;;;;;;;7.93;3.38;;;22.60;99.90;;;;;;5059005;28;20025;-66
2021/06/08 06:57:06;;;;;;;6.35;3.92;;;22.90;99.90;;;;;;5058382;28;20425;-66
2021/06/08 06:59:33;;;;;;;5.95;3.72;;;23.20;99.90;;;;;;5058676;28;20460;-66
2021/06/08 07:01:59;;;;;;;3.67;3.38;;;23.50;99.90;;;;;;5058400;28;20032;-66
2021/06/08 07:04:26;;;;;;;9.50;3.88;;;23.70;99.90;;;;;;5058681;28;20027;-66
2021/06/08 07:06:55;;;;;;;6.15;3.50;;;24.00;99.90;;;;;;5058229;28;20050;-66
2021/06/08 07:09:23;;;;;;;3.67;3.08;;;24.20;99.90;;;;;;5045468;28;20016;-66
2021/06/08 07:11:54;;;;;;;7.38;2.20;;;24.50;99.90;;;;;;5058062;28;20025;-66
2021/06/08 07:14:21;;;;;;;5.57;2.67;;;24.90;99.90;;;;;;5058338;28;20021;-66
2021/06/08 07:16:49;;;;;;;4.00;2.67;;;25.10;99.90;;;;;;5057955;28;20025;-66
2021/06/08 07:19:16;;;;;;;3.50;2.17;;;25.40;99.90;;;;;;5058425;28;20082;-66
2021/06/08 07:21:43;;;;;;;4.50;2.40;;;25.50;99.90;;;;;;5058207;28;20086;-66
2021/06/08 07:24:10;;;;;;;3.53;2.13;;;25.80;99.90;;;;;;5058128;28;20048;-66
2021/06/08 07:26:38;;;;;;;3.40;2.45;;;26.10;99.90;;;;;;5057789;28;20115;-66
2021/06/08 07:29:08;;;;;;;4.80;2.40;;;26.50;99.90;;;;;;5057679;28;20028;-66
2021/06/08 07:31:56;;;;;;;3.28;2.28;;;26.60;99.90;;;;;;5057783;28;20485;-66
2021/06/08 07:34:29;;;;;;;4.03;2.10;;;26.90;99.90;;;;;;5057871;28;20025;-66
2021/06/08 07:36:57;;;;;;;3.17;2.22;;;26.80;99.90;;;;;;5057652;28;20029;-66
2021/06/08 07:39:31;;;;;;;2.08;1.30;;;26.90;99.90;;;;;;5057776;28;20043;-66
2021/06/08 07:42:10;;;;;;;3.13;1.92;;;27.00;99.90;;;;;;5057698;28;20036;-66
2021/06/08 07:44:58;;;;;;;2.65;1.90;;;27.30;99.90;;;;;;5057887;28;20017;-66
2021/06/08 07:47:26;;;;;;;3.13;1.63;;;27.60;99.90;;;;;;5057694;28;20024;-66
2021/06/08 07:49:54;;;;;;;3.05;1.98;;;27.80;99.90;;;;;;5057948;28;20031;-66
2021/06/08 07:52:21;;;;;;;4.28;1.70;;;27.90;99.90;;;;;;5057569;28;20057;-66
2021/06/08 07:54:50;;;;;;;2.80;2.28;;;28.00;99.90;;;;;;5057488;28;20021;-66
2021/06/08 07:57:19;;;;;;;2.50;1.90;;;28.10;99.90;;;;;;5057402;28;20025;-66
2021/06/08 07:59:45;;;;;;;2.25;2.05;;;28.10;99.70;;;;;;5057539;28;20025;-66
2021/06/08 08:02:11;;;;;;;2.95;1.77;;;28.10;99.30;;;;;;5057621;28;20040;-67
2021/06/08 08:04:49;;;;;;;3.13;1.98;;;28.30;99.40;;;;;;5057780;28;20409;-66
2021/06/08 08:07:26;;;;;;;7.20;2.28;;;28.70;99.10;;;;;;5057298;28;20485;-67
2021/06/08 08:09:53;;;;;;;2.67;1.50;;;28.90;98.80;;;;;;5057373;28;20031;-67
2021/06/08 08:12:21;;;;;;;3.90;2.20;;;29.20;98.20;;;;;;5056863;28;20025;-66
2021/06/08 08:14:48;;;;;;;2.88;2.00;;;29.30;97.30;;;;;;5057198;28;20031;-66
2021/06/08 08:17:16;;;;;;;2.85;1.42;;;29.10;96.10;;;;;;5056877;28;20013;-66
2021/06/08 08:19:43;;;;;;;5.32;1.42;;;29.00;97.50;;;;;;5057112;28;20055;-66
2021/06/08 08:22:09;;;;;;;2.90;1.80;;;29.30;97.60;;;;;;5057096;28;20037;-66
2021/06/08 08:24:35;;;;;;;2.35;1.65;;;29.60;95.50;;;;;;5056740;28;20041;-67
2021/06/08 08:27:03;;;;;;;3.20;1.92;;;29.70;95.70;;;;;;5056421;28;20071;-66
2021/06/08 08:29:30;;;;;;;4.00;1.63;;;30.00;95.00;;;;;;5056941;28;20537;-66
2021/06/08 08:31:56;;;;;;;5.97;1.55;;;30.40;94.00;;;;;;5056717;28;20053;-66
2021/06/08 08:34:21;;;;;;;4.60;1.42;;;30.70;94.30;;;;;;5056931;28;20013;-66
2021/06/08 08:36:47;;;;;;;2.83;1.40;;;31.10;93.70;;;;;;5056546;28;20099;-67
2021/06/08 08:39:13;;;;;;;2.38;1.40;;;31.50;92.90;;;;;;5056551;28;20029;-66
2021/06/08 08:41:40;;;;;;;3.47;2.13;;;31.90;92.00;;;;;;5056053;28;20112;-67
2021/06/08 08:44:08;;;;;;;3.65;1.70;;;32.10;91.00;;;;;;5056959;28;20094;-67
2021/06/08 08:46:35;;;;;;;3.05;1.48;;;31.90;90.20;;;;;;5056464;28;20111;-66
2021/06/08 08:49:01;;;;;;;2.22;1.98;;;31.90;90.20;;;;;;5056828;28;20060;-66
2021/06/08 08:51:29;;;;;;;2.17;1.45;;;32.10;90.10;;;;;;5056536;28;20021;-67
2021/06/08 08:53:57;;;;;;;1.23;1.13;;;32.20;88.60;;;;;;5056763;28;20036;-66
2021/06/08 08:56:32;;;;;;;2.33;1.48;;;32.50;88.30;;;;;;5056546;28;20033;-66
2021/06/08 08:59:09;;;;;;;;;;;32.70;88.00;;;;;;5056942;28;20056;-66
2021/06/08 09:01:37;;;;;;;1.90;1.10;;;32.90;86.10;;;;;;5056450;28;19911;-66
2021/06/08 09:04:05;;;;;;;2.42;1.50;;;33.20;85.80;;;;;;5056623;28;20029;-66
2021/06/08 09:06:32;;;;;;;2.05;1.08;;;33.30;84.00;;;;;;5056428;28;20029;-66
2021/06/08 09:09:00;;;;;;;1.85;1.00;;;33.20;81.70;;;;;;5056308;28;20052;-66
2021/06/08 09:11:27;;;;;;;1.10;0.70;;;33.10;80.50;;;;;;5056239;28;20045;-66
2021/06/08 09:13:53;;;;;;;3.03;1.20;;;33.30;80.20;;;;;;5056336;28;20027;-66
2021/06/08 09:16:19;;;;;;;2.97;1.23;;;33.40;78.80;;;;;;5056139;28;20037;-67
2021/06/08 09:18:45;;;;;;;3.05;1.00;;;33.50;78.20;;;;;;5056284;28;20021;-66
2021/06/08 09:21:23;;;;;;;2.38;1.20;;;33.30;77.00;;;;;;5056579;28;20108;-66
2021/06/08 09:23:49;;;;;;;1.60;0.80;;;33.10;78.50;;;;;;5056071;28;20049;-66
2021/06/08 09:26:16;;;;;;;2.17;0.90;;;33.50;79.40;;;;;;5055978;28;20044;-66
2021/06/08 09:28:43;;;;;;;3.83;0.82;;;34.10;80.50;;;;;;5056130;28;20070;-66
2021/06/08 09:31:24;;;;;;;2.25;1.00;;;34.40;75.00;;;;;;5056698;28;20029;-66
2021/06/08 09:33:54;;;;;;;2.55;1.00;;;34.50;71.90;;;;;;5056289;28;20072;-66
2021/06/08 09:36:26;;;;;;;2.03;1.10;;;34.60;72.50;;;;;;5055914;28;20032;-66
2021/06/08 09:38:58;;;;;;;1.98;1.27;;;34.70;71.10;;;;;;5056090;28;20071;-66
2021/06/08 09:41:41;;;;;;;1.92;1.30;;;34.50;70.00;;;;;;5055921;28;20035;-66
2021/06/08 09:44:15;;;;;;;2.40;1.15;;;34.60;71.70;;;;;;5056511;28;20029;-66
2021/06/08 09:46:52;;;;;;;0.95;0.68;;;35.00;69.30;;;;;;5056270;28;20033;-66
2021/06/08 09:49:32;;;;;;;1.55;0.73;;;34.70;66.90;;;;;;5056320;28;20059;-66
2021/06/08 09:52:00;;;;;;;1.75;0.60;;;34.90;69.00;;;;;;5058296;28;20474;-66
2021/06/08 09:54:36;;;;;;;1.30;0.50;;;35.10;66.10;;;;;;5059652;28;20013;-66
2021/06/08 09:57:20;;;;;;;0.85;0.73;;;35.10;66.10;;;;;;5059610;28;20099;-66
2021/06/08 09:59:57;;;;;;;1.73;0.60;;;35.30;65.60;;;;;;5059626;28;20052;-66
2021/06/08 10:02:35;;;;;;;2.00;0.50;;;35.20;64.80;;;;;;5059734;28;20025;-66
2021/06/08 10:05:31;;;;;;;1.90;0.57;;;35.20;66.10;;;;;;5059728;28;20132;-66
2021/06/08 10:08:00;;;;;;;1.38;0.50;;;35.50;64.60;;;;;;5048785;28;20017;-66
2021/06/08 10:10:45;;;;;;;1.55;0.63;;;35.40;63.60;;;;;;5059160;28;20389;-66
2021/06/08 10:13:19;;;;;;;0.88;0.38;;;35.50;62.10;;;;;;5059439;28;20036;-66
2021/06/08 10:15:57;;;;;;;1.55;1.17;;;35.50;65.40;;;;;;5059273;28;20082;-66
2021/06/08 10:18:24;;;;;;;0.30;0.28;;;35.20;63.50;;;;;;5059044;28;20040;-66
2021/06/08 10:20:57;;;;;;;2.85;0.50;;;35.10;65.20;;;;;;5059561;28;20028;-66
2021/06/08 10:23:25;;;;;;;2.00;0.73;;;35.20;65.40;;;;;;5059147;28;20053;-66
2021/06/08 10:25:53;;;;;;;1.58;0.60;;;35.10;66.10;;;;;;5058910;28;20033;-66
2021/06/08 10:28:20;;;;;;;0.80;0.70;;;34.80;66.30;;;;;;5059131;28;20017;-66
2021/06/08 10:30:48;;;;;;;4.28;0.60;;;34.10;65.00;;;;;;5059429;28;20112;-66
2021/06/08 10:33:14;;;;;;;0.90;0.60;;;32.40;65.10;;;;;;5059005;28;20132;-66
2021/06/08 10:35:41;;;;;;;0.75;0.40;;;31.40;68.50;;;;;;5059382;28;20054;-66
2021/06/08 10:38:09;;;;;;;1.58;0.40;;;31.80;69.20;;;;;;5059114;28;20081;-66
2021/06/08 10:40:37;;;;;;;1.13;0.82;;;33.00;67.00;;;;;;5058629;28;20912;-66
2021/06/08 10:43:04;;;;;;;1.00;0.80;;;34.20;66.40;;;;;;5058836;28;20022;-66
2021/06/08 10:45:38;;;;;;;1.25;0.50;;;35.10;63.20;;;;;;5058925;28;20500;-66
2021/06/08 10:48:19;;;;;;;0.75;0.50;;;34.20;61.70;;;;;;5058800;28;20044;-66
2021/06/08 10:50:48;;;;;;;2.78;0.65;;;34.00;64.20;;;;;;5058945;28;20056;-66
2021/06/08 10:53:31;;;;;;;1.38;0.57;;;34.70;64.90;;;;;;5058994;28;20028;-66
2021/06/08 10:55:57;;;;;;;1.73;0.50;;;34.40;62.60;;;;;;5058415;28;20397;-66
2021/06/08 10:58:42;;;;;;;0.65;0.40;;;34.30;65.00;;;;;;5058670;28;20029;-66
2021/06/08 11:01:34;;;;;;;2.47;0.75;;;34.20;64.10;;;;;;5058623;28;20029;-66
2021/06/08 11:04:03;;;;;;;3.17;0.77;;;35.10;60.70;;;;;;5057360;28;20037;-66
2021/06/08 11:06:58;;;;;;;2.08;0.73;;;35.10;62.10;;;;;;5057370;28;20033;-66
2021/06/08 11:09:24;;;;;;;0.88;0.45;;;35.10;60.80;;;;;;5058513;28;20024;-66
2021/06/08 11:11:51;;;;;;;0.95;0.50;;;35.60;60.80;;;;;;5058101;28;20060;-66
2021/06/08 11:14:33;;;;;;;0.95;0.30;;;36.30;60.50;;;;;;5058287;28;20048;-66
2021/06/08 11:17:02;;;;;;;0.88;0.38;;;36.10;58.30;;;;;;5057995;28;20095;-66
2021/06/08 11:19:48;;;;;;;0.63;0.30;;;35.30;59.90;;;;;;5058452;28;20036;-66
2021/06/08 11:22:16;;;;;;;1.45;0.50;;;35.60;58.40;;;;;;5058201;28;20033;-66
2021/06/08 11:24:45;;;;;;;1.42;0.45;;;35.80;58.10;;;;;;5057929;28;20037;-66
2021/06/08 11:27:11;;;;;;;1.05;0.47;;;35.30;59.90;;;;;;5057887;28;20032;-66
2021/06/08 11:29:54;;;;;;;1.10;0.50;;;35.50;61.80;;;;;;5058257;28;20025;-66
2021/06/08 11:32:44;;;;;;;1.73;0.50;;;36.20;58.90;;;;;;5057997;28;20027;-66
2021/06/08 11:35:17;;;;;;;2.22;0.45;;;36.70;59.30;;;;;;5057630;28;20029;-66
2021/06/08 11:38:06;;;;;;;3.38;0.70;;;35.60;58.20;;;;;;5057640;28;20021;-66
2021/06/08 11:40:35;;;;;;;0.57;0.40;;;35.50;59.30;;;;;;5057603;28;20100;-66
2021/06/08 11:43:02;;;;;;;0.70;0.45;;;36.30;57.30;;;;;;5057682;28;20610;-66
2021/06/08 11:45:30;;;;;;;0.30;0.20;;;37.00;58.60;;;;;;5057822;28;20025;-66
2021/06/08 11:47:56;;;;;;;1.17;0.88;;;37.60;57.40;;;;;;5057627;28;20111;-66
2021/06/08 11:50:44;;;;;;;0.82;0.40;;;37.00;57.60;;;;;;5057721;28;20017;-66
2021/06/08 11:53:14;;;;;;;2.78;0.50;;;34.90;57.60;;;;;;5058020;28;20025;-66
2021/06/08 11:55:40;;;;;;;1.10;0.40;;;33.60;60.70;;;;;;5057477;28;20025;-66
2021/06/08 11:58:36;;;;;;;0.82;0.47;;;34.00;61.20;;;;;;5057739;28;20497;-66
2021/06/08 12:01:06;;;;;;;1.02;0.45;;;34.80;59.40;;;;;;5057295;28;20652;-66
2021/06/08 12:03:38;;;;;;;2.47;0.57;;;35.60;56.60;;;;;;5057487;28;20021;-66
2021/06/08 12:06:06;;;;;;;4.10;0.40;;;34.30;57.60;;;;;;5057461;28;20031;-66
2021/06/08 12:08:35;;;;;;;1.38;0.60;;;34.20;59.60;;;;;;5057158;28;20456;-66
2021/06/08 12:11:13;;;;;;;2.53;0.50;;;35.30;60.30;;;;;;5057188;28;20025;-66
2021/06/08 12:13:43;;;;;;;1.00;0.50;;;36.30;59.40;;;;;;5057380;28;20444;-66
2021/06/08 12:16:13;;;;;;;2.83;0.47;;;37.00;58.00;;;;;;5057191;28;20451;-66
2021/06/08 12:18:39;;;;;;;1.30;0.43;;;37.40;54.80;;;;;;5057106;28;20024;-66
2021/06/08 12:21:13;;;;;;;3.13;0.30;;;37.40;55.40;;;;;;5057177;28;20096;-66
2021/06/08 12:23:40;;;;;;;1.08;0.40;;;38.10;55.50;;;;;;5055470;28;20524;-66
2021/06/08 12:26:12;;;;;;;2.17;0.55;;;38.30;55.80;;;;;;5057014;28;20033;-66
2021/06/08 12:28:43;;;;;;;0.75;0.30;;;38.20;55.90;;;;;;5057092;28;20488;-66
2021/06/08 12:31:10;;;;;;;0.32;0.20;;;38.40;55.10;;;;;;5057366;28;20021;-66
2021/06/08 12:33:37;;;;;;;1.77;0.30;;;39.10;55.80;;;;;;5057059;28;20470;-66
2021/06/08 12:36:06;;;;;;;0.70;0.38;;;38.20;53.10;;;;;;5056811;28;20029;-66
2021/06/08 12:38:32;;;;;;;1.55;0.30;;;36.30;54.10;;;;;;5056848;28;20036;-66
2021/06/08 12:41:02;;;;;;;1.15;0.28;;;35.80;56.90;;;;;;5056513;28;20029;-66
2021/06/08 12:43:28;;;;;;;1.75;0.40;;;36.50;56.30;;;;;;5056894;28;20077;-66
2021/06/08 12:45:58;;;;;;;0.57;0.28;;;37.30;54.30;;;;;;5056668;28;20583;-66
2021/06/08 12:48:24;;;;;;;3.15;0.40;;;38.00;53.70;;;;;;5056654;28;20017;-67
2021/06/08 12:50:50;;;;;;;5.82;0.50;;;38.40;52.70;;;;;;5056638;28;20386;-66
2021/06/08 12:53:25;;;;;;;0.80;0.22;;;38.40;52.70;;;;;;5056675;28;20021;-66
2021/06/08 12:55:52;;;;;;;0.93;0.47;;;38.30;51.30;;;;;;5056320;28;20043;-66
2021/06/08 12:58:19;;;;;;;2.40;0.35;;;37.60;51.50;;;;;;5056696;28;20029;-66
2021/06/08 13:00:47;;;;;;;1.15;0.45;;;37.60;52.60;;;;;;5056661;28;20103;-66
2021/06/08 13:03:14;;;;;;;1.42;0.50;;;38.10;53.50;;;;;;5056562;28;20068;-66